Time;durP1;ratioP1;P1;durP2;ratioP2;P2;SDS_P1;SDS_P2;PMS_P1;PMS_P2;Temp;Humidity;BMP_temperature;BMP_pressure;BME280_temperature;BME280_humidity;BME280_pressure;Samples;Min_cycle;Max_cycle;Signal;HPM_P1;HPM_P2
2021/12/12 00:02:32;;;;;;;8.20;6.22;;;2.20;99.90;;;;;;5061564;28;19930;-82
2021/12/12 00:05:08;;;;;;;10.15;6.63;;;2.20;99.90;;;;;;5048383;28;20024;-81
2021/12/12 00:07:34;;;;;;;9.57;6.38;;;2.20;99.90;;;;;;5061356;28;20017;-82
2021/12/12 00:10:07;;;;;;;9.32;6.60;;;2.20;99.90;;;;;;5061723;28;20056;-81
2021/12/12 00:12:39;;;;;;;8.20;5.57;;;2.20;99.90;;;;;;5065436;28;20074;-81
2021/12/12 00:15:07;;;;;;;8.50;6.13;;;2.30;99.90;;;;;;5056581;28;20017;-80
2021/12/12 00:17:33;;;;;;;9.80;6.13;;;2.30;99.90;;;;;;5068135;28;20048;-80
2021/12/12 00:19:59;;;;;;;7.15;5.55;;;2.30;99.90;;;;;;5044759;28;20021;-81
2021/12/12 00:22:28;;;;;;;9.60;6.97;;;2.30;99.90;;;;;;5071727;28;20025;-80
2021/12/12 00:24:55;;;;;;;9.18;5.82;;;2.30;99.90;;;;;;5067876;28;20017;-80
2021/12/12 00:27:21;;;;;;;9.05;5.75;;;2.30;99.90;;;;;;5064805;28;20060;-81
2021/12/12 00:29:48;;;;;;;11.93;6.70;;;2.30;99.90;;;;;;5064476;28;20021;-81
2021/12/12 00:32:16;;;;;;;24.10;7.20;;;2.30;99.90;;;;;;5041817;28;20016;-83
2021/12/12 00:34:47;;;;;;;8.88;6.78;;;2.40;99.90;;;;;;5059947;28;20017;-82
2021/12/12 00:37:13;;;;;;;9.07;6.07;;;2.40;99.90;;;;;;5059917;28;20132;-81
2021/12/12 00:39:43;;;;;;;9.27;6.13;;;2.40;99.90;;;;;;5042666;28;20025;-81
2021/12/12 00:42:16;;;;;;;11.75;7.50;;;2.40;99.90;;;;;;5042505;28;20021;-81
2021/12/12 00:44:46;;;;;;;10.40;6.35;;;2.40;99.90;;;;;;5062944;28;20376;-81
2021/12/12 00:47:12;;;;;;;11.60;7.03;;;2.40;99.90;;;;;;5073617;28;20118;-81
2021/12/12 00:49:43;;;;;;;10.50;7.03;;;2.40;99.90;;;;;;5074421;28;20116;-82
2021/12/12 00:52:12;;;;;;;7.85;6.03;;;2.40;99.90;;;;;;5074086;28;20041;-81
2021/12/12 00:54:39;;;;;;;8.50;6.00;;;2.40;99.90;;;;;;5069995;28;20482;-81
2021/12/12 00:57:07;;;;;;;8.10;5.93;;;2.40;99.90;;;;;;5065525;28;20037;-82
2021/12/12 00:59:34;;;;;;;9.55;6.63;;;2.40;99.90;;;;;;5045382;28;20366;-81
2021/12/12 01:02:02;;;;;;;9.13;6.70;;;2.40;99.90;;;;;;5045026;28;20120;-80
2021/12/12 01:04:35;;;;;;;10.35;6.82;;;2.40;99.90;;;;;;5044280;28;20177;-80
2021/12/12 01:07:05;;;;;;;9.45;6.68;;;2.40;99.90;;;;;;5060774;28;20017;-80
2021/12/12 01:09:40;;;;;;;10.50;6.45;;;2.30;99.90;;;;;;5047653;28;20021;-81
2021/12/12 01:12:12;;;;;;;9.73;7.13;;;2.30;99.90;;;;;;5066444;28;20032;-81
2021/12/12 01:14:42;;;;;;;11.18;7.07;;;2.30;99.90;;;;;;5048184;28;20025;-80
2021/12/12 01:17:21;;;;;;;8.57;5.82;;;2.30;99.90;;;;;;5066486;28;20029;-81
2021/12/12 01:20:01;;;;;;;8.98;6.25;;;2.30;99.90;;;;;;5066311;28;20023;-80
2021/12/12 01:22:35;;;;;;;13.82;7.68;;;2.40;99.90;;;;;;5047266;28;20716;-81
2021/12/12 01:25:11;;;;;;;9.60;6.72;;;2.40;99.90;;;;;;5065912;28;20025;-80
2021/12/12 01:27:37;;;;;;;9.43;6.95;;;2.40;99.90;;;;;;5035374;28;20024;-79
2021/12/12 01:30:07;;;;;;;9.75;6.68;;;2.40;99.90;;;;;;5054964;28;20034;-80
2021/12/12 01:32:33;;;;;;;8.52;6.35;;;2.40;99.90;;;;;;5045455;28;20130;-80
2021/12/12 01:35:00;;;;;;;8.73;6.00;;;2.40;99.90;;;;;;5029222;28;20147;-81
2021/12/12 01:37:38;;;;;;;10.93;7.25;;;2.40;99.90;;;;;;5044982;28;20024;-81
2021/12/12 01:40:23;;;;;;;10.15;6.63;;;2.40;99.90;;;;;;5055814;28;20021;-81
2021/12/12 01:43:13;;;;;;;11.15;7.47;;;2.50;99.90;;;;;;5068182;28;20025;-81
2021/12/12 01:45:44;;;;;;;7.60;6.20;;;2.50;99.90;;;;;;5076432;28;20029;-81
2021/12/12 01:48:24;;;;;;;9.02;6.20;;;2.50;99.90;;;;;;5046704;28;20112;-82
2021/12/12 01:50:58;;;;;;;8.63;5.88;;;2.50;99.90;;;;;;5044265;28;20041;-81
2021/12/12 01:53:26;;;;;;;12.85;7.85;;;2.60;99.90;;;;;;5036024;28;20033;-81
2021/12/12 01:56:04;;;;;;;10.45;6.38;;;2.60;99.90;;;;;;5061248;28;20098;-81
2021/12/12 01:58:32;;;;;;;9.00;6.15;;;2.60;99.90;;;;;;5063554;28;20017;-82
2021/12/12 02:01:03;;;;;;;10.55;7.57;;;2.60;99.90;;;;;;5063163;28;20032;-80
2021/12/12 02:03:33;;;;;;;11.50;8.32;;;2.60;99.90;;;;;;5070275;28;20040;-82
2021/12/12 02:06:02;;;;;;;11.15;7.70;;;2.60;99.90;;;;;;5075578;28;20059;-79
2021/12/12 02:08:30;;;;;;;11.80;8.15;;;2.60;99.90;;;;;;5054303;28;20043;-81
2021/12/12 02:11:00;;;;;;;11.68;8.20;;;2.60;99.90;;;;;;5073204;28;20080;-81
2021/12/12 02:13:28;;;;;;;9.75;7.13;;;2.60;99.90;;;;;;5070008;28;20017;-81
2021/12/12 02:15:57;;;;;;;10.73;7.38;;;2.60;99.90;;;;;;5070975;28;20057;-81
2021/12/12 02:18:31;;;;;;;10.95;7.97;;;2.60;99.90;;;;;;5064647;28;20037;-81
2021/12/12 02:21:28;;;;;;;11.30;7.43;;;2.70;99.90;;;;;;5063826;28;20090;-81
2021/12/12 02:37:52;;;;;;;12.93;7.85;;;2.70;99.90;;;;;;5064681;28;20260;-81
2021/12/12 02:40:23;;;;;;;12.80;8.63;;;2.70;99.90;;;;;;5042226;28;20083;-81
2021/12/12 02:42:50;;;;;;;10.38;8.10;;;2.80;99.90;;;;;;5060883;28;20031;-82
2021/12/12 02:45:18;;;;;;;12.25;7.97;;;2.70;99.90;;;;;;5058011;28;20161;-81
2021/12/12 02:47:47;;;;;;;11.48;7.80;;;2.70;99.90;;;;;;5076840;28;20433;-81
2021/12/12 02:50:19;;;;;;;10.60;7.38;;;2.70;99.90;;;;;;5059286;28;20036;-81
2021/12/12 02:53:07;;;;;;;9.50;7.23;;;2.70;99.90;;;;;;5041486;28;20025;-81
2021/12/12 02:55:41;;;;;;;11.95;7.47;;;2.70;99.90;;;;;;5043705;28;20350;-81
2021/12/12 02:58:09;;;;;;;10.45;7.10;;;2.70;99.90;;;;;;5040824;28;20116;-81
2021/12/12 03:01:02;;;;;;;11.93;8.68;;;2.70;99.90;;;;;;5040778;28;20039;-82
2021/12/12 03:03:30;;;;;;;9.70;7.45;;;2.70;99.90;;;;;;5061462;28;20056;-82
2021/12/12 03:05:56;;;;;;;12.07;7.80;;;2.70;99.90;;;;;;5073409;28;20020;-81
2021/12/12 03:08:23;;;;;;;11.85;8.32;;;2.70;99.90;;;;;;5075188;28;20009;-81
2021/12/12 03:10:54;;;;;;;12.57;8.13;;;2.60;99.90;;;;;;5044071;28;20052;-81
2021/12/12 03:13:21;;;;;;;13.90;8.30;;;2.70;99.90;;;;;;5043970;28;20518;-81
2021/12/12 03:15:48;;;;;;;10.13;7.97;;;2.70;99.90;;;;;;5065085;28;20108;-82
2021/12/12 03:18:19;;;;;;;12.15;7.70;;;2.70;99.90;;;;;;5045122;28;20076;-81
2021/12/12 03:20:53;;;;;;;10.25;6.47;;;2.70;99.90;;;;;;5071895;28;20082;-81
2021/12/12 03:23:25;;;;;;;11.30;7.40;;;2.70;99.90;;;;;;5054294;28;20079;-81
2021/12/12 03:25:59;;;;;;;13.07;8.60;;;2.70;99.90;;;;;;5063855;28;20059;-81
2021/12/12 03:28:28;;;;;;;11.57;7.20;;;2.80;99.90;;;;;;5063628;28;20060;-81
2021/12/12 03:30:56;;;;;;;11.80;7.70;;;2.70;99.90;;;;;;5045512;28;20021;-81
2021/12/12 03:33:23;;;;;;;12.05;7.63;;;2.70;99.90;;;;;;5068127;28;20131;-81
2021/12/12 03:35:51;;;;;;;12.13;7.72;;;2.70;99.90;;;;;;5070076;28;20048;-81
2021/12/12 03:38:19;;;;;;;10.80;7.82;;;2.70;99.90;;;;;;5046358;28;20025;-81
2021/12/12 03:40:45;;;;;;;10.80;7.18;;;2.70;99.90;;;;;;5048690;28;20538;-83
2021/12/12 03:43:13;;;;;;;13.10;7.40;;;2.70;99.90;;;;;;5048155;28;20059;-81
2021/12/12 03:45:41;;;;;;;10.82;7.45;;;2.70;99.90;;;;;;5066060;28;20481;-81
2021/12/12 03:48:19;;;;;;;13.88;7.68;;;2.80;99.90;;;;;;5074114;28;20033;-81
2021/12/12 03:50:47;;;;;;;15.40;7.32;;;2.80;99.90;;;;;;5073225;28;20196;-82
2021/12/12 03:53:14;;;;;;;9.65;7.25;;;2.80;99.90;;;;;;5064800;28;20108;-81
2021/12/12 03:55:42;;;;;;;12.90;7.57;;;2.80;99.90;;;;;;5054515;28;20017;-81
2021/12/12 03:58:09;;;;;;;9.85;6.63;;;2.70;99.90;;;;;;5056692;28;20074;-81
2021/12/12 04:00:48;;;;;;;10.40;6.68;;;2.70;99.90;;;;;;5071380;28;20466;-82
2021/12/12 04:03:15;;;;;;;10.93;6.88;;;2.70;99.90;;;;;;5068859;28;20096;-81
2021/12/12 04:05:46;;;;;;;13.18;7.95;;;2.70;99.90;;;;;;5045338;28;20020;-81
2021/12/12 04:08:12;;;;;;;10.57;6.72;;;2.70;99.90;;;;;;5059991;28;20049;-81
2021/12/12 04:10:38;;;;;;;12.70;8.18;;;2.70;99.90;;;;;;5041365;28;20319;-82
2021/12/12 04:13:04;;;;;;;11.95;7.43;;;2.70;99.90;;;;;;5043799;28;20021;-82
2021/12/12 04:15:30;;;;;;;10.15;7.00;;;2.80;99.90;;;;;;5044813;28;20092;-81
2021/12/12 04:17:55;;;;;;;12.30;8.23;;;2.70;99.90;;;;;;5062661;28;20025;-81
2021/12/12 04:20:31;;;;;;;8.45;6.32;;;2.80;99.90;;;;;;5063974;28;20035;-81
2021/12/12 04:22:57;;;;;;;10.10;6.68;;;2.80;99.90;;;;;;5059029;28;20021;-81
2021/12/12 04:25:24;;;;;;;11.43;7.15;;;2.80;99.90;;;;;;5036135;28;20059;-81
2021/12/12 04:27:52;;;;;;;10.85;7.55;;;2.80;99.90;;;;;;5064425;28;20120;-81
2021/12/12 04:30:18;;;;;;;9.02;6.28;;;2.80;99.90;;;;;;5063628;28;20052;-80
2021/12/12 04:32:45;;;;;;;8.38;5.95;;;2.80;99.90;;;;;;5053981;28;20009;-80
2021/12/12 04:35:20;;;;;;;10.77;7.40;;;2.80;99.90;;;;;;5072599;28;20030;-80
2021/12/12 04:37:46;;;;;;;8.98;6.28;;;2.80;99.90;;;;;;5035034;28;20017;-80
2021/12/12 04:40:17;;;;;;;10.48;7.18;;;2.80;99.90;;;;;;5051870;28;20018;-80
2021/12/12 04:42:44;;;;;;;10.00;6.15;;;2.80;99.90;;;;;;5034427;28;20022;-80
2021/12/12 04:45:15;;;;;;;9.07;6.55;;;2.80;99.90;;;;;;5032613;28;20116;-81
2021/12/12 04:50:47;;;;;;;9.80;6.47;;;2.70;99.90;;;;;;5042304;28;20116;-81
2021/12/12 04:53:22;;;;;;;9.75;6.07;;;2.70;99.90;;;;;;5041148;28;20021;-81
2021/12/12 04:55:56;;;;;;;8.02;5.78;;;2.70;99.90;;;;;;5045669;28;20044;-81
2021/12/12 04:58:52;;;;;;;9.80;6.40;;;2.80;99.90;;;;;;5044046;28;20080;-81
2021/12/12 05:01:33;;;;;;;9.35;6.47;;;2.80;99.90;;;;;;5043687;28;20021;-81
2021/12/12 05:04:06;;;;;;;11.25;6.88;;;2.80;99.90;;;;;;5063017;28;20098;-81
2021/12/12 05:06:43;;;;;;;11.38;7.80;;;2.80;99.90;;;;;;5043980;28;20025;-80
2021/12/12 05:09:14;;;;;;;8.75;6.25;;;2.80;99.90;;;;;;5056719;28;20043;-81
2021/12/12 05:11:46;;;;;;;9.65;6.13;;;2.80;99.90;;;;;;5040144;28;20029;-80
2021/12/12 05:14:22;;;;;;;9.25;6.03;;;2.80;99.90;;;;;;5058803;28;20017;-80
2021/12/12 05:16:52;;;;;;;10.75;7.07;;;2.80;99.90;;;;;;5058155;28;20552;-80
2021/12/12 05:19:24;;;;;;;9.60;6.95;;;2.80;99.90;;;;;;5041170;28;20029;-80
2021/12/12 05:21:56;;;;;;;11.85;7.75;;;2.70;99.90;;;;;;5059376;28;20033;-80
2021/12/12 05:24:24;;;;;;;9.90;7.22;;;2.70;99.90;;;;;;5052738;28;20557;-80
2021/12/12 05:26:57;;;;;;;12.18;7.40;;;2.70;99.90;;;;;;5039912;28;20549;-80
2021/12/12 05:29:25;;;;;;;;;;;2.70;99.90;;;;;;5041516;28;20051;-83
2021/12/12 05:31:55;;;;;;;10.13;7.25;;;2.80;99.90;;;;;;5041632;28;19913;-82
2021/12/12 05:34:27;;;;;;;10.85;6.57;;;2.80;99.90;;;;;;5040107;28;20025;-81
2021/12/12 05:36:54;;;;;;;7.45;5.65;;;2.80;99.90;;;;;;5058247;28;20013;-82
2021/12/12 05:39:21;;;;;;;8.90;6.05;;;2.80;99.90;;;;;;5058970;28;20032;-82
2021/12/12 05:41:48;;;;;;;10.50;6.93;;;2.80;99.90;;;;;;5065687;28;20025;-82
2021/12/12 05:44:16;;;;;;;10.32;6.93;;;2.80;99.90;;;;;;5050918;28;20025;-82
2021/12/12 05:46:42;;;;;;;8.38;5.85;;;2.80;99.90;;;;;;5067020;28;20005;-81
2021/12/12 05:49:09;;;;;;;9.65;5.88;;;2.80;99.90;;;;;;5048867;28;20025;-81
2021/12/12 05:51:36;;;;;;;7.63;5.50;;;2.80;99.90;;;;;;5067074;28;20063;-81
2021/12/12 05:54:03;;;;;;;6.82;5.50;;;2.80;99.90;;;;;;5050610;28;20028;-81
2021/12/12 05:56:32;;;;;;;8.60;5.70;;;2.90;99.90;;;;;;5050429;28;20025;-81
2021/12/12 05:58:59;;;;;;;7.22;5.18;;;2.80;99.90;;;;;;5051262;28;20086;-80
2021/12/12 06:01:26;;;;;;;10.20;5.50;;;2.90;99.90;;;;;;5066554;28;20044;-80
2021/12/12 06:03:52;;;;;;;8.63;5.53;;;2.80;99.90;;;;;;5066701;28;20021;-81
2021/12/12 06:06:23;;;;;;;7.32;6.07;;;2.80;99.90;;;;;;5050280;28;20092;-79
2021/12/12 06:08:50;;;;;;;7.68;5.50;;;2.80;99.90;;;;;;5044465;28;20017;-80
2021/12/12 06:11:24;;;;;;;8.82;5.85;;;2.80;99.90;;;;;;5050519;28;20037;-78
2021/12/12 06:13:50;;;;;;;10.52;5.65;;;2.80;99.90;;;;;;5063882;28;20021;-80
2021/12/12 06:16:19;;;;;;;7.43;5.72;;;2.80;99.90;;;;;;5065655;28;20021;-79
2021/12/12 06:18:48;;;;;;;8.30;5.88;;;2.80;99.90;;;;;;5063939;28;20017;-79
2021/12/12 06:21:14;;;;;;;9.85;5.38;;;2.80;99.90;;;;;;5063974;28;20045;-80
2021/12/12 06:23:40;;;;;;;9.15;6.05;;;2.80;99.90;;;;;;5063913;28;20031;-80
2021/12/12 06:26:06;;;;;;;6.72;4.97;;;2.80;99.90;;;;;;5045733;28;20021;-79
2021/12/12 06:28:35;;;;;;;6.78;4.80;;;2.80;99.90;;;;;;5064586;28;20079;-79
2021/12/12 06:31:02;;;;;;;8.15;4.85;;;2.80;99.90;;;;;;5064960;28;20056;-80
2021/12/12 06:33:29;;;;;;;7.95;5.30;;;2.80;99.90;;;;;;5059774;28;20053;-80
2021/12/12 06:35:55;;;;;;;8.07;5.15;;;2.80;99.90;;;;;;5062158;28;20017;-81
2021/12/12 06:38:22;;;;;;;6.78;4.40;;;2.80;99.50;;;;;;5060893;28;20043;-81
2021/12/12 06:40:48;;;;;;;7.22;4.82;;;2.80;99.70;;;;;;5055170;28;20470;-81
2021/12/12 06:43:16;;;;;;;6.75;4.60;;;2.80;99.70;;;;;;5060279;28;20025;-81
2021/12/12 06:45:42;;;;;;;6.22;4.82;;;2.80;99.70;;;;;;5060629;28;20025;-80
2021/12/12 06:48:10;;;;;;;6.72;4.40;;;2.70;99.90;;;;;;5048527;28;20052;-80
2021/12/12 06:50:39;;;;;;;8.57;5.32;;;2.80;99.90;;;;;;5038547;28;20032;-80
2021/12/12 06:53:05;;;;;;;10.23;5.28;;;2.80;99.80;;;;;;5026657;28;20024;-80
2021/12/12 06:55:32;;;;;;;5.32;4.32;;;2.80;99.30;;;;;;5057782;28;20037;-80
2021/12/12 06:57:59;;;;;;;6.93;4.30;;;2.80;99.10;;;;;;5059078;28;20484;-80
2021/12/12 07:00:27;;;;;;;8.30;5.00;;;2.80;99.20;;;;;;5042494;28;20041;-80
2021/12/12 07:02:53;;;;;;;6.88;4.78;;;2.80;99.00;;;;;;5061087;28;20025;-82
2021/12/12 07:05:24;;;;;;;6.20;4.40;;;2.80;99.20;;;;;;5060516;28;20127;-82
2021/12/12 07:07:51;;;;;;;5.50;4.05;;;2.80;99.30;;;;;;5040077;28;20482;-82
2021/12/12 07:10:20;;;;;;;5.68;4.03;;;2.80;99.00;;;;;;5039767;28;20480;-80
2021/12/12 07:12:53;;;;;;;4.88;3.35;;;2.80;98.30;;;;;;5036874;28;20026;-81
2021/12/12 07:15:19;;;;;;;4.60;3.53;;;2.80;98.30;;;;;;5044581;28;20027;-83
2021/12/12 07:17:46;;;;;;;5.05;3.80;;;2.90;97.90;;;;;;5050814;28;20005;-82
2021/12/12 07:20:12;;;;;;;6.30;4.22;;;2.90;98.10;;;;;;5076728;28;20068;-82
2021/12/12 07:22:40;;;;;;;4.38;3.20;;;2.90;98.10;;;;;;5047770;28;20040;-83
2021/12/12 07:25:07;;;;;;;4.35;3.15;;;2.90;97.60;;;;;;5064299;28;20086;-81
2021/12/12 07:27:33;;;;;;;5.68;3.80;;;2.90;97.20;;;;;;5075351;28;20064;-83
2021/12/12 07:30:01;;;;;;;3.88;3.00;;;3.00;97.10;;;;;;5073660;28;20040;-81
2021/12/12 07:32:27;;;;;;;4.72;3.28;;;3.00;97.10;;;;;;5069457;28;20076;-83
2021/12/12 07:34:54;;;;;;;4.63;3.47;;;3.00;97.20;;;;;;5052132;28;20041;-80
2021/12/12 07:37:20;;;;;;;6.00;3.00;;;3.00;96.70;;;;;;5072089;28;20035;-82
2021/12/12 07:39:47;;;;;;;4.95;3.00;;;3.00;97.10;;;;;;5074143;28;20055;-82
2021/12/12 07:42:16;;;;;;;5.50;3.38;;;3.00;97.20;;;;;;5074805;28;20081;-81
2021/12/12 07:44:43;;;;;;;6.10;4.00;;;3.00;96.60;;;;;;5068028;28;20056;-82
2021/12/12 07:47:12;;;;;;;8.07;3.85;;;3.00;96.60;;;;;;5076424;28;20021;-81
2021/12/12 07:49:41;;;;;;;5.28;3.90;;;3.00;96.50;;;;;;5075816;28;20025;-81
2021/12/12 07:52:11;;;;;;;5.53;3.78;;;3.00;96.70;;;;;;5058264;28;20033;-81
2021/12/12 07:54:37;;;;;;;5.20;3.70;;;3.00;96.90;;;;;;5066528;28;20040;-82
2021/12/12 07:57:05;;;;;;;9.13;4.13;;;3.00;96.60;;;;;;5048664;28;20557;-82
2021/12/12 07:59:33;;;;;;;5.32;4.00;;;3.10;96.20;;;;;;5064764;28;20454;-82
2021/12/12 08:02:00;;;;;;;5.65;3.75;;;3.10;96.40;;;;;;5064953;28;20021;-83
2021/12/12 08:04:29;;;;;;;5.10;3.38;;;3.00;96.70;;;;;;5066139;28;20021;-83
2021/12/12 08:06:56;;;;;;;4.38;3.90;;;3.00;96.90;;;;;;5047392;28;20458;-82
2021/12/12 08:09:23;;;;;;;4.80;3.75;;;3.00;96.90;;;;;;5044100;28;20558;-83
2021/12/12 08:11:50;;;;;;;5.07;4.13;;;3.10;96.80;;;;;;5044004;28;20021;-83
2021/12/12 08:14:20;;;;;;;9.32;4.57;;;3.10;96.30;;;;;;5061420;28;20078;-84
2021/12/12 08:16:47;;;;;;;7.47;4.20;;;3.20;96.20;;;;;;5063596;28;20080;-83
2021/12/12 08:19:16;;;;;;;4.60;3.30;;;3.10;96.30;;;;;;5064308;28;20386;-84
2021/12/12 08:21:42;;;;;;;5.22;3.28;;;3.20;96.60;;;;;;5063440;28;20025;-84
2021/12/12 08:24:10;;;;;;;6.70;4.25;;;3.20;96.70;;;;;;5063658;28;20048;-84
2021/12/12 08:26:39;;;;;;;7.95;4.70;;;3.30;96.60;;;;;;5053625;28;20028;-83
2021/12/12 08:29:07;;;;;;;5.55;3.95;;;3.40;96.30;;;;;;5064111;28;20087;-82
2021/12/12 08:31:33;;;;;;;6.40;4.43;;;3.50;96.20;;;;;;5064658;28;20025;-83
2021/12/12 08:34:00;;;;;;;5.78;3.90;;;3.50;96.00;;;;;;5067847;28;20031;-81
2021/12/12 08:36:26;;;;;;;5.65;4.05;;;3.50;96.10;;;;;;5066832;28;20021;-82
2021/12/12 08:38:52;;;;;;;4.97;3.90;;;3.60;95.90;;;;;;5067023;28;20021;-81
2021/12/12 08:41:19;;;;;;;4.78;3.95;;;3.70;95.50;;;;;;5065971;28;20096;-83
2021/12/12 08:43:45;;;;;;;5.22;3.90;;;3.70;95.50;;;;;;5064346;28;20029;-81
2021/12/12 08:46:14;;;;;;;6.95;4.75;;;3.80;95.20;;;;;;5064745;28;20036;-84
2021/12/12 08:48:47;;;;;;;6.60;5.10;;;3.80;95.10;;;;;;5046419;28;20109;-83
2021/12/12 08:51:30;;;;;;;4.88;4.13;;;3.80;94.90;;;;;;5049669;28;20041;-83
2021/12/12 08:54:01;;;;;;;4.40;3.78;;;3.80;94.80;;;;;;5063852;28;20036;-83
2021/12/12 08:56:42;;;;;;;6.65;4.68;;;3.70;94.90;;;;;;5068779;28;20033;-80
2021/12/12 08:59:16;;;;;;;6.00;4.57;;;3.70;94.80;;;;;;5074099;28;20025;-79
2021/12/12 09:01:43;;;;;;;6.95;5.07;;;3.70;94.80;;;;;;5068644;28;20509;-80
2021/12/12 09:04:10;;;;;;;6.15;4.43;;;3.80;94.80;;;;;;5065952;28;20100;-81
2021/12/12 09:06:53;;;;;;;5.97;4.40;;;3.80;94.70;;;;;;5045768;28;20029;-81
2021/12/12 09:09:27;;;;;;;4.05;3.58;;;3.90;94.70;;;;;;5045003;28;20033;-81
2021/12/12 09:12:06;;;;;;;6.07;4.47;;;4.00;94.60;;;;;;5059582;28;20036;-82
2021/12/12 09:14:37;;;;;;;4.63;3.95;;;4.10;94.50;;;;;;5046260;28;20100;-81
2021/12/12 09:17:07;;;;;;;7.15;5.25;;;4.20;94.30;;;;;;5060041;28;20028;-81
2021/12/12 09:19:55;;;;;;;7.18;5.38;;;4.30;93.90;;;;;;5027579;28;20026;-82
2021/12/12 09:22:30;;;;;;;7.22;5.20;;;4.40;93.60;;;;;;5044992;28;20013;-83
2021/12/12 09:25:07;;;;;;;8.15;4.85;;;4.50;93.50;;;;;;5040541;28;20090;-82
2021/12/12 09:27:40;;;;;;;8.15;5.13;;;4.60;93.30;;;;;;5064535;28;20025;-82
2021/12/12 09:30:15;;;;;;;6.68;5.13;;;4.80;92.80;;;;;;5051383;28;20494;-83
2021/12/12 09:32:51;;;;;;;6.90;5.15;;;4.80;92.30;;;;;;5056119;28;20082;-81
2021/12/12 09:35:28;;;;;;;6.88;4.93;;;4.80;92.10;;;;;;5052445;28;20021;-82
2021/12/12 09:38:02;;;;;;;8.05;5.20;;;4.80;91.90;;;;;;5053524;28;20018;-84
2021/12/12 09:40:47;;;;;;;8.18;4.68;;;4.80;91.50;;;;;;5046374;28;20041;-84
2021/12/12 09:43:21;;;;;;;5.63;4.40;;;4.80;91.80;;;;;;5030112;28;20026;-83
2021/12/12 09:46:00;;;;;;;6.65;3.88;;;4.90;92.20;;;;;;5047632;28;20037;-83
2021/12/12 09:52:11;;;;;;;8.40;5.82;;;4.80;92.00;;;;;;5047237;28;20060;-81
2021/12/12 09:55:00;;;;;;;8.70;6.17;;;4.80;92.00;;;;;;5066722;28;20017;-83
2021/12/12 09:57:34;;;;;;;8.05;5.90;;;4.90;91.90;;;;;;5021544;28;20077;-81
2021/12/12 10:00:06;;;;;;;7.22;4.97;;;5.10;91.90;;;;;;5060027;28;20108;-82
2021/12/12 10:02:46;;;;;;;7.03;5.10;;;5.10;91.40;;;;;;5078151;28;20025;-81
2021/12/12 10:05:43;;;;;;;7.43;4.82;;;5.10;91.70;;;;;;5059599;28;20033;-81
2021/12/12 10:08:24;;;;;;;6.72;4.95;;;5.10;91.50;;;;;;5077028;28;20036;-80
2021/12/12 10:11:09;;;;;;;7.40;5.07;;;4.90;91.70;;;;;;5056920;28;20031;-82
2021/12/12 10:13:51;;;;;;;7.20;5.20;;;4.80;92.10;;;;;;5067989;28;20553;-83
2021/12/12 10:16:33;;;;;;;6.80;5.38;;;4.90;92.30;;;;;;5055511;28;20017;-82
2021/12/12 10:19:31;;;;;;;6.20;4.90;;;5.10;91.90;;;;;;5055428;28;20036;-81
2021/12/12 10:22:06;;;;;;;8.93;5.63;;;5.20;91.70;;;;;;5071369;28;20040;-83
2021/12/12 10:24:33;;;;;;;7.20;5.15;;;5.20;91.50;;;;;;5072212;28;20051;-81
2021/12/12 10:27:14;;;;;;;8.07;5.18;;;5.30;91.40;;;;;;5068532;28;20559;-85
2021/12/12 10:30:01;;;;;;;6.07;4.88;;;5.40;91.50;;;;;;5039412;28;20048;-81
2021/12/12 10:32:35;;;;;;;9.38;5.60;;;5.60;91.30;;;;;;5046253;28;20486;-83
2021/12/12 10:35:16;;;;;;;6.60;5.00;;;5.70;91.10;;;;;;5048459;28;20052;-84
2021/12/12 10:38:08;;;;;;;5.55;4.43;;;5.90;91.00;;;;;;5032259;28;20032;-80
2021/12/12 10:40:54;;;;;;;7.07;4.65;;;6.00;90.50;;;;;;5050416;28;20040;-80
2021/12/12 10:43:33;;;;;;;8.35;4.95;;;6.10;90.20;;;;;;5032877;28;20025;-84
2021/12/12 10:46:07;;;;;;;6.68;5.00;;;6.10;90.20;;;;;;5053017;28;20057;-80
2021/12/12 10:48:55;;;;;;;7.05;5.63;;;6.10;90.00;;;;;;5040155;28;20034;-79
2021/12/12 10:51:21;;;;;;;6.38;4.90;;;6.20;89.50;;;;;;5034071;28;20037;-82
2021/12/12 10:54:08;;;;;;;6.72;5.15;;;6.10;89.80;;;;;;5062898;28;20039;-82
2021/12/12 10:56:44;;;;;;;5.95;4.18;;;6.00;89.80;;;;;;5076917;28;20032;-81
2021/12/12 10:59:27;;;;;;;4.93;4.18;;;6.00;90.00;;;;;;5073518;28;20032;-82
2021/12/12 11:01:59;;;;;;;5.57;4.25;;;6.00;90.10;;;;;;5052267;28;20031;-83
2021/12/12 11:04:43;;;;;;;6.85;4.22;;;5.90;90.40;;;;;;5072816;28;20024;-81
2021/12/12 11:07:39;;;;;;;5.38;4.00;;;6.00;90.40;;;;;;5052744;28;20064;-83
2021/12/12 11:10:11;;;;;;;4.75;4.07;;;6.00;90.40;;;;;;5059447;28;20060;-83
2021/12/12 11:12:56;;;;;;;4.68;3.72;;;6.00;90.20;;;;;;5047188;28;20048;-84
2021/12/12 11:15:42;;;;;;;4.85;3.60;;;6.00;90.20;;;;;;5030707;28;20524;-83
2021/12/12 11:18:20;;;;;;;5.85;4.40;;;5.90;90.00;;;;;;5050122;28;20017;-84
2021/12/12 11:21:00;;;;;;;4.57;3.67;;;5.90;89.20;;;;;;5048913;28;20454;-83
2021/12/12 11:23:43;;;;;;;4.38;3.85;;;5.90;89.30;;;;;;5038739;28;20036;-83
2021/12/12 11:26:15;;;;;;;4.78;4.00;;;5.80;89.80;;;;;;5067930;28;20029;-84
2021/12/12 11:28:46;;;;;;;5.65;4.05;;;5.70;90.00;;;;;;5062357;28;20045;-81
2021/12/12 11:31:25;;;;;;;5.20;3.40;;;5.70;89.50;;;;;;5060362;28;20021;-81
2021/12/12 11:33:53;;;;;;;4.07;3.60;;;5.70;90.00;;;;;;5052642;28;20084;-82
2021/12/12 11:36:25;;;;;;;3.72;2.97;;;5.70;89.60;;;;;;5067398;28;20025;-83
2021/12/12 11:39:33;;;;;;;4.82;3.30;;;5.70;89.30;;;;;;5052042;28;20020;-82
2021/12/12 11:42:32;;;;;;;4.68;2.80;;;5.80;89.60;;;;;;5017559;28;20042;-83
2021/12/12 11:45:05;;;;;;;5.50;3.22;;;5.90;88.90;;;;;;5033429;28;20077;-80
2021/12/12 11:48:02;;;;;;;3.25;2.88;;;6.10;88.80;;;;;;5033645;28;20079;-83
2021/12/12 11:50:51;;;;;;;3.45;3.00;;;6.10;87.90;;;;;;5049230;28;20029;-82
2021/12/12 11:53:20;;;;;;;3.25;2.72;;;6.20;87.50;;;;;;5061664;28;20048;-79
2021/12/12 11:55:56;;;;;;;3.63;2.95;;;6.20;87.00;;;;;;5058102;28;20018;-80
2021/12/12 11:58:37;;;;;;;4.38;2.85;;;6.40;87.50;;;;;;5070452;28;20025;-82
2021/12/12 12:01:18;;;;;;;3.60;2.70;;;6.40;86.50;;;;;;5067558;28;20080;-82
2021/12/12 12:03:49;;;;;;;6.05;2.80;;;6.40;86.10;;;;;;5069487;28;20020;-82
2021/12/12 12:06:34;;;;;;;3.25;2.45;;;6.50;86.10;;;;;;5072730;28;20017;-82
2021/12/12 12:09:02;;;;;;;2.25;2.05;;;6.50;85.60;;;;;;5062806;28;20024;-82
2021/12/12 12:12:00;;;;;;;3.33;2.47;;;6.50;85.50;;;;;;5047342;28;20047;-82
2021/12/12 12:15:00;;;;;;;2.35;2.13;;;6.50;85.00;;;;;;5050858;28;20022;-81
2021/12/12 12:17:45;;;;;;;4.45;2.45;;;6.70;85.60;;;;;;5025093;28;20030;-82
2021/12/12 12:20:37;;;;;;;3.22;2.33;;;6.80;85.30;;;;;;5058021;28;20069;-82
2021/12/12 12:23:32;;;;;;;3.80;2.28;;;6.80;83.60;;;;;;5032634;28;20033;-81
2021/12/12 12:29:08;;;;;;;5.18;2.63;;;6.90;84.30;;;;;;5070302;28;20020;-83
2021/12/12 12:31:36;;;;;;;2.65;2.35;;;7.00;84.20;;;;;;5056998;28;20099;-82
2021/12/12 12:34:40;;;;;;;2.28;2.00;;;7.00;84.30;;;;;;5051410;28;20199;-81
2021/12/12 12:37:43;;;;;;;4.47;2.83;;;7.00;83.90;;;;;;5053205;28;20032;-81
2021/12/12 12:40:48;;;;;;;4.15;2.35;;;7.00;83.20;;;;;;5048079;28;20024;-81
2021/12/12 12:43:51;;;;;;;3.15;2.28;;;6.90;83.30;;;;;;5070890;28;20036;-81
2021/12/12 12:46:43;;;;;;;2.35;2.00;;;6.90;83.70;;;;;;5054339;28;20022;-79
2021/12/12 12:49:45;;;;;;;3.58;2.72;;;6.70;84.20;;;;;;5056709;28;20024;-78
2021/12/12 12:52:58;;;;;;;3.50;2.42;;;6.70;83.90;;;;;;5060185;28;20064;-78
2021/12/12 12:55:34;;;;;;;4.55;2.60;;;6.60;84.30;;;;;;5060996;28;20456;-79
2021/12/12 12:58:21;;;;;;;3.40;2.28;;;6.60;85.30;;;;;;5061978;28;20076;-80
2021/12/12 13:00:49;;;;;;;3.45;2.50;;;6.70;85.30;;;;;;5052280;28;20033;-84
2021/12/12 13:03:47;;;;;;;2.40;2.20;;;6.70;84.40;;;;;;5027019;28;20102;-80
2021/12/12 13:06:50;;;;;;;3.00;2.67;;;6.80;84.50;;;;;;5003265;28;20037;-79
2021/12/12 13:09:25;;;;;;;3.15;2.83;;;6.80;84.80;;;;;;5045641;28;20025;-80
2021/12/12 13:12:07;;;;;;;2.60;2.25;;;6.80;84.90;;;;;;5066753;28;20092;-80
2021/12/12 13:14:53;;;;;;;4.20;2.55;;;6.80;85.30;;;;;;5066765;28;20078;-79
2021/12/12 13:17:40;;;;;;;3.05;2.65;;;6.70;85.70;;;;;;5066422;28;20016;-80
2021/12/12 13:20:24;;;;;;;3.03;2.10;;;6.70;85.90;;;;;;5066515;28;20044;-80
2021/12/12 13:23:07;;;;;;;3.47;2.63;;;6.60;86.10;;;;;;5049453;28;20029;-78
2021/12/12 13:25:41;;;;;;;4.88;3.25;;;6.50;86.20;;;;;;5062935;28;20024;-79
2021/12/12 13:28:19;;;;;;;3.00;2.05;;;6.50;86.60;;;;;;5063305;28;20092;-79
2021/12/12 13:31:35;;;;;;;2.45;1.85;;;6.60;87.30;;;;;;5049173;28;20048;-82
2021/12/12 13:34:18;;;;;;;3.08;2.20;;;6.60;87.50;;;;;;4984702;28;20026;-79
2021/12/12 13:37:28;;;;;;;3.10;1.83;;;6.50;85.40;;;;;;4970815;28;20094;-80
2021/12/12 13:40:27;;;;;;;3.83;1.58;;;6.50;85.90;;;;;;4983691;28;20047;-80
2021/12/12 13:43:18;;;;;;;2.45;1.77;;;6.40;84.60;;;;;;5048603;28;20096;-79
2021/12/12 13:46:18;;;;;;;1.60;1.42;;;6.30;85.00;;;;;;5045439;28;20020;-79
2021/12/12 13:49:08;;;;;;;3.17;2.03;;;6.30;86.10;;;;;;5028240;28;20018;-79
2021/12/12 13:51:33;;;;;;;3.47;1.55;;;6.30;85.50;;;;;;5029960;28;20097;-80
2021/12/12 13:54:21;;;;;;;1.98;1.70;;;6.20;85.30;;;;;;5060799;28;20029;-78
2021/12/12 13:57:12;;;;;;;2.40;1.85;;;6.20;85.60;;;;;;5065415;28;20207;-79